sensor_id;sensor_type;location;lat;lon;timestamp;temperature;humidity
17986;DHT22;9118;48.122;11.546;2023-09-19T00:01:33;18.10;99.90
17986;DHT22;9118;48.122;11.546;2023-09-19T00:04:01;18.10;99.90
17986;DHT22;9118;48.122;11.546;2023-09-19T00:06:28;18.10;99.90
17986;DHT22;9118;48.122;11.546;2023-09-19T00:08:57;18.20;99.90
17986;DHT22;9118;48.122;11.546;2023-09-19T00:11:31;18.10;99.90
17986;DHT22;9118;48.122;11.546;2023-09-19T00:13:57;18.20;99.90
17986;DHT22;9118;48.122;11.546;2023-09-19T00:16:26;18.20;99.90
17986;DHT22;9118;48.122;11.546;2023-09-19T00:18:53;18.20;99.90
17986;DHT22;9118;48.122;11.546;2023-09-19T00:21:22;18.20;99.90
17986;DHT22;9118;48.122;11.546;2023-09-19T00:23:49;18.20;99.90
17986;DHT22;9118;48.122;11.546;2023-09-19T00:26:17;18.20;99.90
17986;DHT22;9118;48.122;11.546;2023-09-19T00:28:44;18.20;99.90
17986;DHT22;9118;48.122;11.546;2023-09-19T00:31:10;18.20;99.90
17986;DHT22;9118;48.122;11.546;2023-09-19T00:33:38;18.20;99.90
17986;DHT22;9118;48.122;11.546;2023-09-19T00:36:05;18.20;99.90
17986;DHT22;9118;48.122;11.546;2023-09-19T00:38:33;18.10;99.90
17986;DHT22;9118;48.122;11.546;2023-09-19T00:41:01;18.00;99.90
17986;DHT22;9118;48.122;11.546;2023-09-19T00:43:28;18.00;99.90
17986;DHT22;9118;48.122;11.546;2023-09-19T00:45:59;17.90;99.90
17986;DHT22;9118;48.122;11.546;2023-09-19T00:48:28;17.80;99.90
17986;DHT22;9118;48.122;11.546;2023-09-19T00:50:56;17.80;99.90
17986;DHT22;9118;48.122;11.546;2023-09-19T00:53:24;17.80;99.90
17986;DHT22;9118;48.122;11.546;2023-09-19T00:55:52;17.80;99.90
17986;DHT22;9118;48.122;11.546;2023-09-19T00:58:19;17.70;99.90
17986;DHT22;9118;48.122;11.546;2023-09-19T01:00:46;17.70;99.90
17986;DHT22;9118;48.122;11.546;2023-09-19T01:03:16;17.70;99.90
17986;DHT22;9118;48.122;11.546;2023-09-19T01:05:43;17.70;99.90
17986;DHT22;9118;48.122;11.546;2023-09-19T01:08:10;17.70;99.90
17986;DHT22;9118;48.122;11.546;2023-09-19T01:10:38;17.70;99.90
17986;DHT22;9118;48.122;11.546;2023-09-19T01:13:08;17.70;99.90
17986;DHT22;9118;48.122;11.546;2023-09-19T01:15:40;17.80;99.90
17986;DHT22;9118;48.122;11.546;2023-09-19T01:18:11;17.80;99.90
17986;DHT22;9118;48.122;11.546;2023-09-19T01:20:44;17.70;99.90
17986;DHT22;9118;48.122;11.546;2023-09-19T01:23:14;17.70;99.90
17986;DHT22;9118;48.122;11.546;2023-09-19T01:28:51;17.80;99.90
17986;DHT22;9118;48.122;11.546;2023-09-19T01:31:21;17.80;99.90
17986;DHT22;9118;48.122;11.546;2023-09-19T01:33:53;17.90;99.90
17986;DHT22;9118;48.122;11.546;2023-09-19T01:36:22;17.90;99.90
17986;DHT22;9118;48.122;11.546;2023-09-19T01:38:49;17.90;99.90
17986;DHT22;9118;48.122;11.546;2023-09-19T01:41:17;17.90;99.90
17986;DHT22;9118;48.122;11.546;2023-09-19T01:43:48;17.90;99.90
17986;DHT22;9118;48.122;11.546;2023-09-19T01:46:16;17.90;99.90
17986;DHT22;9118;48.122;11.546;2023-09-19T01:48:49;18.00;99.90
17986;DHT22;9118;48.122;11.546;2023-09-19T01:51:20;18.00;99.90
17986;DHT22;9118;48.122;11.546;2023-09-19T01:53:51;18.00;99.90
17986;DHT22;9118;48.122;11.546;2023-09-19T01:56:23;18.00;99.90
17986;DHT22;9118;48.122;11.546;2023-09-19T01:58:53;18.00;99.90
17986;DHT22;9118;48.122;11.546;2023-09-19T02:01:22;18.00;99.90
17986;DHT22;9118;48.122;11.546;2023-09-19T02:03:50;18.00;99.90
17986;DHT22;9118;48.122;11.546;2023-09-19T02:06:17;18.00;99.90
17986;DHT22;9118;48.122;11.546;2023-09-19T02:08:45;18.10;99.90
17986;DHT22;9118;48.122;11.546;2023-09-19T02:11:14;18.10;99.90
17986;DHT22;9118;48.122;11.546;2023-09-19T02:13:41;18.10;99.90
17986;DHT22;9118;48.122;11.546;2023-09-19T02:16:09;18.10;99.90
17986;DHT22;9118;48.122;11.546;2023-09-19T02:18:36;18.10;99.90
17986;DHT22;9118;48.122;11.546;2023-09-19T02:21:06;18.10;99.90
17986;DHT22;9118;48.122;11.546;2023-09-19T02:23:35;18.10;99.90
17986;DHT22;9118;48.122;11.546;2023-09-19T02:26:02;18.10;99.90
17986;DHT22;9118;48.122;11.546;2023-09-19T02:28:29;18.10;99.90
17986;DHT22;9118;48.122;11.546;2023-09-19T02:30:57;18.10;99.90
17986;DHT22;9118;48.122;11.546;2023-09-19T02:33:24;18.10;99.90
17986;DHT22;9118;48.122;11.546;2023-09-19T02:35:54;18.10;99.90
17986;DHT22;9118;48.122;11.546;2023-09-19T02:38:25;18.10;99.90
17986;DHT22;9118;48.122;11.546;2023-09-19T02:40:52;18.00;99.90
17986;DHT22;9118;48.122;11.546;2023-09-19T02:43:22;18.10;99.90
17986;DHT22;9118;48.122;11.546;2023-09-19T02:45:50;18.00;99.90
17986;DHT22;9118;48.122;11.546;2023-09-19T02:48:18;17.90;99.90
17986;DHT22;9118;48.122;11.546;2023-09-19T02:50:45;18.00;99.90
17986;DHT22;9118;48.122;11.546;2023-09-19T02:53:12;18.00;99.90
17986;DHT22;9118;48.122;11.546;2023-09-19T02:55:40;18.10;99.90
17986;DHT22;9118;48.122;11.546;2023-09-19T02:58:08;18.00;99.90
17986;DHT22;9118;48.122;11.546;2023-09-19T03:00:36;18.00;99.90
17986;DHT22;9118;48.122;11.546;2023-09-19T03:03:04;18.00;99.90
17986;DHT22;9118;48.122;11.546;2023-09-19T03:05:31;18.00;99.90
17986;DHT22;9118;48.122;11.546;2023-09-19T03:07:58;18.00;99.90
17986;DHT22;9118;48.122;11.546;2023-09-19T03:10:27;18.00;99.90
17986;DHT22;9118;48.122;11.546;2023-09-19T03:12:56;18.00;99.90
17986;DHT22;9118;48.122;11.546;2023-09-19T03:15:25;17.90;99.90
17986;DHT22;9118;48.122;11.546;2023-09-19T03:17:51;17.90;99.90
17986;DHT22;9118;48.122;11.546;2023-09-19T03:20:19;17.90;99.90
17986;DHT22;9118;48.122;11.546;2023-09-19T03:22:46;17.90;99.90
17986;DHT22;9118;48.122;11.546;2023-09-19T03:25:15;17.80;99.90
17986;DHT22;9118;48.122;11.546;2023-09-19T03:27:42;17.80;99.90
17986;DHT22;9118;48.122;11.546;2023-09-19T03:30:11;17.80;99.90
17986;DHT22;9118;48.122;11.546;2023-09-19T03:32:43;17.70;99.90
17986;DHT22;9118;48.122;11.546;2023-09-19T03:35:10;17.70;99.90
17986;DHT22;9118;48.122;11.546;2023-09-19T03:37:39;17.60;99.90
17986;DHT22;9118;48.122;11.546;2023-09-19T03:40:07;17.60;99.90
17986;DHT22;9118;48.122;11.546;2023-09-19T03:42:34;17.60;99.90
17986;DHT22;9118;48.122;11.546;2023-09-19T03:45:01;17.60;99.90
17986;DHT22;9118;48.122;11.546;2023-09-19T03:47:32;17.60;99.90
17986;DHT22;9118;48.122;11.546;2023-09-19T03:49:59;17.50;99.90
17986;DHT22;9118;48.122;11.546;2023-09-19T03:52:26;17.50;99.90
17986;DHT22;9118;48.122;11.546;2023-09-19T03:54:53;17.50;99.90
17986;DHT22;9118;48.122;11.546;2023-09-19T03:57:20;17.50;99.90
17986;DHT22;9118;48.122;11.546;2023-09-19T03:59:47;17.40;99.90
17986;DHT22;9118;48.122;11.546;2023-09-19T04:02:14;17.50;99.90
17986;DHT22;9118;48.122;11.546;2023-09-19T04:04:49;17.50;99.90
17986;DHT22;9118;48.122;11.546;2023-09-19T04:07:16;17.50;99.90
17986;DHT22;9118;48.122;11.546;2023-09-19T04:09:43;17.60;99.90
17986;DHT22;9118;48.122;11.546;2023-09-19T04:12:11;17.60;99.90
17986;DHT22;9118;48.122;11.546;2023-09-19T04:14:38;17.60;99.90
17986;DHT22;9118;48.122;11.546;2023-09-19T04:17:05;17.50;99.90
17986;DHT22;9118;48.122;11.546;2023-09-19T04:19:32;17.50;99.90
17986;DHT22;9118;48.122;11.546;2023-09-19T04:22:00;17.40;99.90
17986;DHT22;9118;48.122;11.546;2023-09-19T04:24:27;17.50;99.90
17986;DHT22;9118;48.122;11.546;2023-09-19T04:26:54;17.40;99.90
17986;DHT22;9118;48.122;11.546;2023-09-19T04:29:21;17.40;99.90
17986;DHT22;9118;48.122;11.546;2023-09-19T04:31:47;17.40;99.90
17986;DHT22;9118;48.122;11.546;2023-09-19T04:34:14;17.40;99.90
17986;DHT22;9118;48.122;11.546;2023-09-19T04:36:43;17.40;99.90
17986;DHT22;9118;48.122;11.546;2023-09-19T04:39:12;17.40;99.90
17986;DHT22;9118;48.122;11.546;2023-09-19T04:41:38;17.30;99.90
17986;DHT22;9118;48.122;11.546;2023-09-19T04:44:06;17.30;99.90
17986;DHT22;9118;48.122;11.546;2023-09-19T04:46:36;17.30;99.90
17986;DHT22;9118;48.122;11.546;2023-09-19T04:49:03;17.30;99.90
17986;DHT22;9118;48.122;11.546;2023-09-19T04:51:30;17.30;99.90
17986;DHT22;9118;48.122;11.546;2023-09-19T04:54:01;17.30;99.90
17986;DHT22;9118;48.122;11.546;2023-09-19T04:56:30;17.20;99.90
17986;DHT22;9118;48.122;11.546;2023-09-19T04:58:57;17.30;99.90
17986;DHT22;9118;48.122;11.546;2023-09-19T05:01:24;17.30;99.90
17986;DHT22;9118;48.122;11.546;2023-09-19T05:03:51;17.30;99.90
17986;DHT22;9118;48.122;11.546;2023-09-19T05:06:18;17.30;99.90
17986;DHT22;9118;48.122;11.546;2023-09-19T05:08:46;17.30;99.90
17986;DHT22;9118;48.122;11.546;2023-09-19T05:11:17;17.30;99.90
17986;DHT22;9118;48.122;11.546;2023-09-19T05:13:45;17.30;99.90
17986;DHT22;9118;48.122;11.546;2023-09-19T05:16:12;17.30;99.90
17986;DHT22;9118;48.122;11.546;2023-09-19T05:18:39;17.30;99.90
17986;DHT22;9118;48.122;11.546;2023-09-19T05:21:06;17.30;99.90
17986;DHT22;9118;48.122;11.546;2023-09-19T05:23:34;17.30;99.90
17986;DHT22;9118;48.122;11.546;2023-09-19T05:26:02;17.40;99.90
17986;DHT22;9118;48.122;11.546;2023-09-19T05:28:32;17.30;99.90
17986;DHT22;9118;48.122;11.546;2023-09-19T05:31:01;17.30;99.90
17986;DHT22;9118;48.122;11.546;2023-09-19T05:33:28;17.30;99.90
17986;DHT22;9118;48.122;11.546;2023-09-19T05:35:56;17.30;99.90
17986;DHT22;9118;48.122;11.546;2023-09-19T05:38:23;17.30;99.90
17986;DHT22;9118;48.122;11.546;2023-09-19T05:40:51;17.30;99.90
17986;DHT22;9118;48.122;11.546;2023-09-19T05:43:19;17.30;99.90
17986;DHT22;9118;48.122;11.546;2023-09-19T05:45:46;17.20;99.90
17986;DHT22;9118;48.122;11.546;2023-09-19T05:48:14;17.20;99.90
17986;DHT22;9118;48.122;11.546;2023-09-19T05:50:42;17.20;99.90
17986;DHT22;9118;48.122;11.546;2023-09-19T05:53:08;17.20;99.90
17986;DHT22;9118;48.122;11.546;2023-09-19T05:55:37;17.20;99.90
17986;DHT22;9118;48.122;11.546;2023-09-19T05:58:04;17.10;99.90
17986;DHT22;9118;48.122;11.546;2023-09-19T06:00:31;17.20;99.90
17986;DHT22;9118;48.122;11.546;2023-09-19T06:02:58;17.20;99.90
17986;DHT22;9118;48.122;11.546;2023-09-19T06:05:27;17.20;99.90
17986;DHT22;9118;48.122;11.546;2023-09-19T06:07:55;17.40;99.90
17986;DHT22;9118;48.122;11.546;2023-09-19T06:10:25;17.50;99.90
17986;DHT22;9118;48.122;11.546;2023-09-19T06:12:53;17.60;99.90
17986;DHT22;9118;48.122;11.546;2023-09-19T06:15:20;17.70;99.90
17986;DHT22;9118;48.122;11.546;2023-09-19T06:17:48;17.60;99.90
17986;DHT22;9118;48.122;11.546;2023-09-19T06:20:16;17.60;99.90
17986;DHT22;9118;48.122;11.546;2023-09-19T06:22:45;17.60;99.90
17986;DHT22;9118;48.122;11.546;2023-09-19T06:25:13;17.70;99.90
17986;DHT22;9118;48.122;11.546;2023-09-19T06:27:44;17.80;99.90
17986;DHT22;9118;48.122;11.546;2023-09-19T06:30:12;17.90;99.90
17986;DHT22;9118;48.122;11.546;2023-09-19T06:32:39;17.90;99.90
17986;DHT22;9118;48.122;11.546;2023-09-19T06:35:09;18.00;99.90
17986;DHT22;9118;48.122;11.546;2023-09-19T06:37:36;18.00;99.90
17986;DHT22;9118;48.122;11.546;2023-09-19T06:40:07;18.00;99.90
17986;DHT22;9118;48.122;11.546;2023-09-19T06:42:35;18.00;99.90
17986;DHT22;9118;48.122;11.546;2023-09-19T06:45:03;18.00;99.90
17986;DHT22;9118;48.122;11.546;2023-09-19T06:47:31;17.90;99.90
17986;DHT22;9118;48.122;11.546;2023-09-19T06:49:57;18.00;99.90
17986;DHT22;9118;48.122;11.546;2023-09-19T06:52:24;18.00;99.90
17986;DHT22;9118;48.122;11.546;2023-09-19T06:54:51;17.80;99.90
17986;DHT22;9118;48.122;11.546;2023-09-19T06:57:20;17.80;99.90
17986;DHT22;9118;48.122;11.546;2023-09-19T06:59:46;17.80;99.90
17986;DHT22;9118;48.122;11.546;2023-09-19T07:02:21;17.90;99.90
17986;DHT22;9118;48.122;11.546;2023-09-19T07:04:47;17.90;99.90
17986;DHT22;9118;48.122;11.546;2023-09-19T07:07:14;18.00;99.90
17986;DHT22;9118;48.122;11.546;2023-09-19T07:09:41;18.20;99.90
17986;DHT22;9118;48.122;11.546;2023-09-19T07:12:08;18.20;99.90
17986;DHT22;9118;48.122;11.546;2023-09-19T07:14:37;18.20;99.90
17986;DHT22;9118;48.122;11.546;2023-09-19T07:17:04;18.00;99.90
17986;DHT22;9118;48.122;11.546;2023-09-19T07:19:30;18.10;99.90
17986;DHT22;9118;48.122;11.546;2023-09-19T07:21:58;18.10;99.90
17986;DHT22;9118;48.122;11.546;2023-09-19T07:24:28;18.10;99.90
17986;DHT22;9118;48.122;11.546;2023-09-19T07:26:54;18.10;99.90
17986;DHT22;9118;48.122;11.546;2023-09-19T07:29:22;18.00;99.90
17986;DHT22;9118;48.122;11.546;2023-09-19T07:31:50;18.00;99.90
17986;DHT22;9118;48.122;11.546;2023-09-19T07:34:17;18.10;99.90
17986;DHT22;9118;48.122;11.546;2023-09-19T07:36:45;18.20;99.90
17986;DHT22;9118;48.122;11.546;2023-09-19T07:39:12;18.40;99.90
17986;DHT22;9118;48.122;11.546;2023-09-19T07:41:39;18.40;99.90
17986;DHT22;9118;48.122;11.546;2023-09-19T07:44:06;18.40;99.90
17986;DHT22;9118;48.122;11.546;2023-09-19T07:46:33;18.60;99.90
17986;DHT22;9118;48.122;11.546;2023-09-19T07:49:01;18.70;99.90
17986;DHT22;9118;48.122;11.546;2023-09-19T07:51:27;18.80;99.90
17986;DHT22;9118;48.122;11.546;2023-09-19T07:53:54;18.80;99.90
17986;DHT22;9118;48.122;11.546;2023-09-19T07:56:21;18.70;99.90
17986;DHT22;9118;48.122;11.546;2023-09-19T07:58:48;18.70;99.90
17986;DHT22;9118;48.122;11.546;2023-09-19T08:01:15;18.60;99.90
17986;DHT22;9118;48.122;11.546;2023-09-19T08:03:42;18.80;99.90
17986;DHT22;9118;48.122;11.546;2023-09-19T08:06:12;18.90;99.90
17986;DHT22;9118;48.122;11.546;2023-09-19T08:08:39;19.10;99.90
17986;DHT22;9118;48.122;11.546;2023-09-19T08:11:06;19.20;99.90
17986;DHT22;9118;48.122;11.546;2023-09-19T08:13:36;19.20;99.90
17986;DHT22;9118;48.122;11.546;2023-09-19T08:16:06;19.40;99.90
17986;DHT22;9118;48.122;11.546;2023-09-19T08:18:36;19.40;99.90
17986;DHT22;9118;48.122;11.546;2023-09-19T08:21:05;19.30;99.90
17986;DHT22;9118;48.122;11.546;2023-09-19T08:23:34;19.40;99.90
17986;DHT22;9118;48.122;11.546;2023-09-19T08:26:01;19.20;99.90
17986;DHT22;9118;48.122;11.546;2023-09-19T08:28:32;19.20;99.90
17986;DHT22;9118;48.122;11.546;2023-09-19T08:31:01;19.10;99.90
17986;DHT22;9118;48.122;11.546;2023-09-19T08:33:29;18.90;99.90
17986;DHT22;9118;48.122;11.546;2023-09-19T08:35:56;19.00;99.90
17986;DHT22;9118;48.122;11.546;2023-09-19T08:38:23;19.00;99.90
17986;DHT22;9118;48.122;11.546;2023-09-19T08:40:55;19.20;99.90
17986;DHT22;9118;48.122;11.546;2023-09-19T08:43:23;19.20;99.90
17986;DHT22;9118;48.122;11.546;2023-09-19T08:45:50;19.30;99.90
17986;DHT22;9118;48.122;11.546;2023-09-19T08:48:20;19.40;99.90
17986;DHT22;9118;48.122;11.546;2023-09-19T08:50:49;19.50;99.90
17986;DHT22;9118;48.122;11.546;2023-09-19T08:53:20;19.40;99.90
17986;DHT22;9118;48.122;11.546;2023-09-19T08:55:49;19.50;99.90
17986;DHT22;9118;48.122;11.546;2023-09-19T08:58:21;19.60;99.90
17986;DHT22;9118;48.122;11.546;2023-09-19T09:00:48;19.80;99.90
17986;DHT22;9118;48.122;11.546;2023-09-19T09:03:17;20.10;99.90
17986;DHT22;9118;48.122;11.546;2023-09-19T09:05:46;20.40;99.90
17986;DHT22;9118;48.122;11.546;2023-09-19T09:08:13;20.50;99.90
17986;DHT22;9118;48.122;11.546;2023-09-19T09:10:42;20.30;99.90
17986;DHT22;9118;48.122;11.546;2023-09-19T09:13:10;20.20;99.90
17986;DHT22;9118;48.122;11.546;2023-09-19T09:15:44;20.10;99.90
17986;DHT22;9118;48.122;11.546;2023-09-19T09:18:11;20.00;99.90
17986;DHT22;9118;48.122;11.546;2023-09-19T09:20:38;19.90;99.90
17986;DHT22;9118;48.122;11.546;2023-09-19T09:23:06;19.70;99.90
17986;DHT22;9118;48.122;11.546;2023-09-19T09:25:49;19.60;99.90
17986;DHT22;9118;48.122;11.546;2023-09-19T09:28:20;19.60;99.90
17986;DHT22;9118;48.122;11.546;2023-09-19T09:30:48;19.70;99.90
17986;DHT22;9118;48.122;11.546;2023-09-19T09:33:16;19.80;99.90
17986;DHT22;9118;48.122;11.546;2023-09-19T09:35:53;20.00;99.90
17986;DHT22;9118;48.122;11.546;2023-09-19T09:38:22;20.20;99.90
17986;DHT22;9118;48.122;11.546;2023-09-19T09:40:53;20.40;99.90
17986;DHT22;9118;48.122;11.546;2023-09-19T09:43:28;20.30;99.90
17986;DHT22;9118;48.122;11.546;2023-09-19T09:46:10;20.50;99.90
17986;DHT22;9118;48.122;11.546;2023-09-19T09:49:05;20.50;99.90
17986;DHT22;9118;48.122;11.546;2023-09-19T09:51:41;20.70;99.90
17986;DHT22;9118;48.122;11.546;2023-09-19T09:54:11;20.70;99.90
17986;DHT22;9118;48.122;11.546;2023-09-19T09:56:51;20.80;99.90
17986;DHT22;9118;48.122;11.546;2023-09-19T09:59:18;21.00;99.90
17986;DHT22;9118;48.122;11.546;2023-09-19T10:01:50;21.20;99.90
17986;DHT22;9118;48.122;11.546;2023-09-19T10:04:27;21.40;99.90
17986;DHT22;9118;48.122;11.546;2023-09-19T10:06:55;21.40;99.90
17986;DHT22;9118;48.122;11.546;2023-09-19T10:09:22;21.50;99.90
17986;DHT22;9118;48.122;11.546;2023-09-19T10:11:58;21.30;99.90
17986;DHT22;9118;48.122;11.546;2023-09-19T10:14:29;21.30;99.90
17986;DHT22;9118;48.122;11.546;2023-09-19T10:16:58;21.20;99.90
17986;DHT22;9118;48.122;11.546;2023-09-19T10:19:33;21.20;99.90
17986;DHT22;9118;48.122;11.546;2023-09-19T10:22:03;21.00;99.90
17986;DHT22;9118;48.122;11.546;2023-09-19T10:24:31;20.80;99.90
17986;DHT22;9118;48.122;11.546;2023-09-19T10:27:00;21.00;99.90
17986;DHT22;9118;48.122;11.546;2023-09-19T10:29:31;21.00;99.90
17986;DHT22;9118;48.122;11.546;2023-09-19T10:32:03;21.00;99.90
17986;DHT22;9118;48.122;11.546;2023-09-19T10:34:31;21.00;99.90
17986;DHT22;9118;48.122;11.546;2023-09-19T10:37:00;20.90;99.90
17986;DHT22;9118;48.122;11.546;2023-09-19T10:39:31;20.80;99.90
17986;DHT22;9118;48.122;11.546;2023-09-19T10:42:01;20.80;99.90
17986;DHT22;9118;48.122;11.546;2023-09-19T10:44:32;20.80;99.90
17986;DHT22;9118;48.122;11.546;2023-09-19T10:46:59;20.70;99.90
17986;DHT22;9118;48.122;11.546;2023-09-19T10:49:27;20.50;99.90
17986;DHT22;9118;48.122;11.546;2023-09-19T10:51:59;20.40;99.90
17986;DHT22;9118;48.122;11.546;2023-09-19T10:54:31;20.40;99.90
17986;DHT22;9118;48.122;11.546;2023-09-19T10:56:59;20.40;99.90
17986;DHT22;9118;48.122;11.546;2023-09-19T10:59:30;20.50;99.90
17986;DHT22;9118;48.122;11.546;2023-09-19T11:02:00;20.50;99.90
17986;DHT22;9118;48.122;11.546;2023-09-19T11:04:44;20.50;99.90
17986;DHT22;9118;48.122;11.546;2023-09-19T11:07:13;20.50;99.90
17986;DHT22;9118;48.122;11.546;2023-09-19T11:09:44;20.40;99.90
17986;DHT22;9118;48.122;11.546;2023-09-19T11:12:12;20.20;99.90
17986;DHT22;9118;48.122;11.546;2023-09-19T11:14:40;20.20;99.90
17986;DHT22;9118;48.122;11.546;2023-09-19T11:17:30;20.20;99.90
17986;DHT22;9118;48.122;11.546;2023-09-19T11:25:44;20.10;99.90
17986;DHT22;9118;48.122;11.546;2023-09-19T11:28:31;20.20;99.90
17986;DHT22;9118;48.122;11.546;2023-09-19T11:30:59;20.30;99.90
17986;DHT22;9118;48.122;11.546;2023-09-19T11:33:45;20.40;99.90
17986;DHT22;9118;48.122;11.546;2023-09-19T11:36:15;20.60;99.90
17986;DHT22;9118;48.122;11.546;2023-09-19T11:38:59;20.70;99.90
17986;DHT22;9118;48.122;11.546;2023-09-19T11:41:39;20.80;99.90
17986;DHT22;9118;48.122;11.546;2023-09-19T11:46:52;21.00;99.90
17986;DHT22;9118;48.122;11.546;2023-09-19T11:49:25;21.10;99.90
17986;DHT22;9118;48.122;11.546;2023-09-19T11:51:55;21.20;99.90
17986;DHT22;9118;48.122;11.546;2023-09-19T11:54:23;21.30;99.90
17986;DHT22;9118;48.122;11.546;2023-09-19T11:56:55;21.30;99.90
17986;DHT22;9118;48.122;11.546;2023-09-19T11:59:24;21.40;99.90
17986;DHT22;9118;48.122;11.546;2023-09-19T12:01:54;21.40;99.90
17986;DHT22;9118;48.122;11.546;2023-09-19T12:04:33;21.40;99.90
17986;DHT22;9118;48.122;11.546;2023-09-19T12:07:07;21.30;99.90
17986;DHT22;9118;48.122;11.546;2023-09-19T12:09:39;21.50;99.90
17986;DHT22;9118;48.122;11.546;2023-09-19T12:12:08;21.80;99.90
17986;DHT22;9118;48.122;11.546;2023-09-19T12:14:38;21.90;99.90
17986;DHT22;9118;48.122;11.546;2023-09-19T12:17:07;21.90;99.90
17986;DHT22;9118;48.122;11.546;2023-09-19T12:19:34;22.10;99.90
17986;DHT22;9118;48.122;11.546;2023-09-19T12:22:03;22.20;99.90
17986;DHT22;9118;48.122;11.546;2023-09-19T12:24:31;22.20;99.90
17986;DHT22;9118;48.122;11.546;2023-09-19T12:27:02;22.30;99.90
17986;DHT22;9118;48.122;11.546;2023-09-19T12:29:42;22.40;99.90
17986;DHT22;9118;48.122;11.546;2023-09-19T12:32:09;22.40;99.90
17986;DHT22;9118;48.122;11.546;2023-09-19T12:34:37;22.50;99.90
17986;DHT22;9118;48.122;11.546;2023-09-19T12:37:09;22.20;99.90
17986;DHT22;9118;48.122;11.546;2023-09-19T12:39:43;22.00;99.90
17986;DHT22;9118;48.122;11.546;2023-09-19T12:42:15;22.30;99.90
17986;DHT22;9118;48.122;11.546;2023-09-19T12:44:44;22.50;99.90
17986;DHT22;9118;48.122;11.546;2023-09-19T12:47:13;22.50;99.90
17986;DHT22;9118;48.122;11.546;2023-09-19T12:50:07;22.50;99.90
17986;DHT22;9118;48.122;11.546;2023-09-19T12:52:39;22.00;99.90
17986;DHT22;9118;48.122;11.546;2023-09-19T12:55:07;22.10;99.90
17986;DHT22;9118;48.122;11.546;2023-09-19T12:57:34;22.20;99.90
17986;DHT22;9118;48.122;11.546;2023-09-19T13:00:06;22.10;99.90
17986;DHT22;9118;48.122;11.546;2023-09-19T13:02:36;22.30;99.90
17986;DHT22;9118;48.122;11.546;2023-09-19T13:05:03;22.60;99.90
17986;DHT22;9118;48.122;11.546;2023-09-19T13:07:42;22.70;99.90
17986;DHT22;9118;48.122;11.546;2023-09-19T13:10:12;22.70;99.90
17986;DHT22;9118;48.122;11.546;2023-09-19T13:12:41;22.70;99.90
17986;DHT22;9118;48.122;11.546;2023-09-19T13:15:11;22.70;99.90
17986;DHT22;9118;48.122;11.546;2023-09-19T13:17:44;22.70;99.90
17986;DHT22;9118;48.122;11.546;2023-09-19T13:20:21;22.80;99.90
17986;DHT22;9118;48.122;11.546;2023-09-19T13:22:50;22.70;99.90
17986;DHT22;9118;48.122;11.546;2023-09-19T13:25:19;22.50;99.90
17986;DHT22;9118;48.122;11.546;2023-09-19T13:27:47;22.40;99.90
17986;DHT22;9118;48.122;11.546;2023-09-19T13:30:18;22.30;99.90
17986;DHT22;9118;48.122;11.546;2023-09-19T13:32:45;22.30;99.90
17986;DHT22;9118;48.122;11.546;2023-09-19T13:35:12;22.20;99.90
17986;DHT22;9118;48.122;11.546;2023-09-19T13:37:39;22.00;99.90
17986;DHT22;9118;48.122;11.546;2023-09-19T13:40:08;21.80;99.90
17986;DHT22;9118;48.122;11.546;2023-09-19T13:42:35;21.80;99.90
17986;DHT22;9118;48.122;11.546;2023-09-19T13:45:03;22.00;99.90
17986;DHT22;9118;48.122;11.546;2023-09-19T13:47:31;22.10;99.90
17986;DHT22;9118;48.122;11.546;2023-09-19T13:49:58;22.20;99.90
17986;DHT22;9118;48.122;11.546;2023-09-19T13:52:26;22.40;99.90
17986;DHT22;9118;48.122;11.546;2023-09-19T13:54:55;22.40;99.90
17986;DHT22;9118;48.122;11.546;2023-09-19T13:57:22;22.50;99.90
17986;DHT22;9118;48.122;11.546;2023-09-19T13:59:49;22.50;99.90
17986;DHT22;9118;48.122;11.546;2023-09-19T14:02:17;22.40;99.90
17986;DHT22;9118;48.122;11.546;2023-09-19T14:04:45;22.10;99.90
17986;DHT22;9118;48.122;11.546;2023-09-19T14:07:12;22.10;99.90
17986;DHT22;9118;48.122;11.546;2023-09-19T14:09:40;22.10;99.90
17986;DHT22;9118;48.122;11.546;2023-09-19T14:12:08;22.20;99.90
17986;DHT22;9118;48.122;11.546;2023-09-19T14:14:35;22.30;99.90
17986;DHT22;9118;48.122;11.546;2023-09-19T14:17:02;22.40;99.90
17986;DHT22;9118;48.122;11.546;2023-09-19T14:19:29;22.50;99.90
17986;DHT22;9118;48.122;11.546;2023-09-19T14:21:58;22.50;99.90
17986;DHT22;9118;48.122;11.546;2023-09-19T14:24:32;22.50;99.90
17986;DHT22;9118;48.122;11.546;2023-09-19T14:26:59;22.40;99.90
17986;DHT22;9118;48.122;11.546;2023-09-19T14:29:26;22.30;99.90
17986;DHT22;9118;48.122;11.546;2023-09-19T14:31:53;22.10;99.90
17986;DHT22;9118;48.122;11.546;2023-09-19T14:34:22;22.00;99.90
17986;DHT22;9118;48.122;11.546;2023-09-19T14:36:49;22.00;99.90
17986;DHT22;9118;48.122;11.546;2023-09-19T14:39:17;22.20;99.90
17986;DHT22;9118;48.122;11.546;2023-09-19T14:41:45;22.50;99.90
17986;DHT22;9118;48.122;11.546;2023-09-19T14:44:11;23.00;99.90
17986;DHT22;9118;48.122;11.546;2023-09-19T14:46:38;23.80;99.90
17986;DHT22;9118;48.122;11.546;2023-09-19T14:49:05;24.10;99.90
17986;DHT22;9118;48.122;11.546;2023-09-19T14:51:32;24.40;99.90
17986;DHT22;9118;48.122;11.546;2023-09-19T14:54:01;25.10;99.90
17986;DHT22;9118;48.122;11.546;2023-09-19T14:56:29;25.50;99.90
17986;DHT22;9118;48.122;11.546;2023-09-19T14:58:56;26.40;99.90
17986;DHT22;9118;48.122;11.546;2023-09-19T15:01:23;27.20;99.90
17986;DHT22;9118;48.122;11.546;2023-09-19T15:03:50;27.40;99.90
17986;DHT22;9118;48.122;11.546;2023-09-19T15:06:19;27.80;99.90
17986;DHT22;9118;48.122;11.546;2023-09-19T15:08:47;28.50;99.90
17986;DHT22;9118;48.122;11.546;2023-09-19T15:11:16;29.90;99.90
17986;DHT22;9118;48.122;11.546;2023-09-19T15:13:51;31.60;97.30
17986;DHT22;9118;48.122;11.546;2023-09-19T15:16:18;32.30;94.00
17986;DHT22;9118;48.122;11.546;2023-09-19T15:18:46;31.50;93.60
17986;DHT22;9118;48.122;11.546;2023-09-19T15:21:14;32.00;92.80
17986;DHT22;9118;48.122;11.546;2023-09-19T15:23:43;32.60;91.20
17986;DHT22;9118;48.122;11.546;2023-09-19T15:26:13;33.10;90.30
17986;DHT22;9118;48.122;11.546;2023-09-19T15:28:43;33.60;87.60
17986;DHT22;9118;48.122;11.546;2023-09-19T15:31:12;34.20;85.30
17986;DHT22;9118;48.122;11.546;2023-09-19T15:33:39;34.30;83.40
17986;DHT22;9118;48.122;11.546;2023-09-19T15:36:08;34.10;81.90
17986;DHT22;9118;48.122;11.546;2023-09-19T15:38:56;34.40;81.30
17986;DHT22;9118;48.122;11.546;2023-09-19T15:41:25;34.40;79.40
17986;DHT22;9118;48.122;11.546;2023-09-19T15:43:53;33.40;78.90
17986;DHT22;9118;48.122;11.546;2023-09-19T15:46:22;33.30;79.50
17986;DHT22;9118;48.122;11.546;2023-09-19T15:48:49;33.50;78.60
17986;DHT22;9118;48.122;11.546;2023-09-19T15:51:16;33.30;79.20
17986;DHT22;9118;48.122;11.546;2023-09-19T15:53:48;32.50;79.70